sensor_id;sensor_type;location;lat;lon;timestamp;pressure;altitude;pressure_sealevel;temperature;humidity
21960;BME280;11144;43.030;25.108;2023-04-30T00:00:06;98903.69;;;12.36;100.00
21960;BME280;11144;43.030;25.108;2023-04-30T00:01:43;98906.72;;;12.29;100.00
21960;BME280;11144;43.030;25.108;2023-04-30T00:03:15;98899.28;;;12.18;100.00
21960;BME280;11144;43.030;25.108;2023-04-30T00:04:48;98901.59;;;12.07;100.00
21960;BME280;11144;43.030;25.108;2023-04-30T00:06:20;98901.03;;;12.01;100.00
21960;BME280;11144;43.030;25.108;2023-04-30T00:07:54;98905.63;;;11.97;100.00
21960;BME280;11144;43.030;25.108;2023-04-30T00:09:27;98906.78;;;11.92;100.00
21960;BME280;11144;43.030;25.108;2023-04-30T00:11:01;98913.06;;;11.89;100.00
21960;BME280;11144;43.030;25.108;2023-04-30T00:12:34;98914.22;;;11.84;100.00
21960;BME280;11144;43.030;25.108;2023-04-30T00:14:07;98910.88;;;11.80;100.00
21960;BME280;11144;43.030;25.108;2023-04-30T00:15:42;98913.72;;;11.76;100.00
21960;BME280;11144;43.030;25.108;2023-04-30T00:17:15;98904.00;;;11.76;100.00
21960;BME280;11144;43.030;25.108;2023-04-30T00:18:48;98912.09;;;11.73;100.00
21960;BME280;11144;43.030;25.108;2023-04-30T00:20:22;98908.50;;;11.74;100.00
21960;BME280;11144;43.030;25.108;2023-04-30T00:21:55;98907.66;;;11.74;100.00
21960;BME280;11144;43.030;25.108;2023-04-30T00:23:28;98914.66;;;11.75;100.00
21960;BME280;11144;43.030;25.108;2023-04-30T00:25:01;98912.09;;;11.73;100.00
21960;BME280;11144;43.030;25.108;2023-04-30T00:26:35;98910.06;;;11.78;100.00
21960;BME280;11144;43.030;25.108;2023-04-30T00:28:08;98900.28;;;11.80;100.00
21960;BME280;11144;43.030;25.108;2023-04-30T00:29:41;98900.22;;;11.82;100.00
21960;BME280;11144;43.030;25.108;2023-04-30T00:31:15;98909.66;;;11.87;100.00
21960;BME280;11144;43.030;25.108;2023-04-30T00:32:49;98908.00;;;11.85;100.00
21960;BME280;11144;43.030;25.108;2023-04-30T00:34:22;98908.22;;;11.80;100.00
21960;BME280;11144;43.030;25.108;2023-04-30T00:35:55;98904.63;;;11.81;100.00
21960;BME280;11144;43.030;25.108;2023-04-30T00:37:29;98911.97;;;11.76;100.00
21960;BME280;11144;43.030;25.108;2023-04-30T00:39:01;98911.97;;;11.76;100.00
21960;BME280;11144;43.030;25.108;2023-04-30T00:40:35;98907.44;;;11.78;100.00
21960;BME280;11144;43.030;25.108;2023-04-30T00:42:07;98890.63;;;11.79;100.00
21960;BME280;11144;43.030;25.108;2023-04-30T00:43:40;98897.63;;;11.80;100.00
21960;BME280;11144;43.030;25.108;2023-04-30T00:45:14;98897.16;;;11.72;100.00
21960;BME280;11144;43.030;25.108;2023-04-30T00:46:50;98904.34;;;11.69;100.00
21960;BME280;11144;43.030;25.108;2023-04-30T00:48:23;98905.38;;;11.66;100.00
21960;BME280;11144;43.030;25.108;2023-04-30T00:49:57;98896.19;;;11.73;100.00
21960;BME280;11144;43.030;25.108;2023-04-30T00:51:31;98895.19;;;11.76;100.00
21960;BME280;11144;43.030;25.108;2023-04-30T00:53:04;98898.72;;;11.76;100.00
21960;BME280;11144;43.030;25.108;2023-04-30T00:54:38;98896.06;;;11.76;100.00
21960;BME280;11144;43.030;25.108;2023-04-30T00:56:12;98899.94;;;11.69;100.00
21960;BME280;11144;43.030;25.108;2023-04-30T00:57:47;98894.50;;;11.72;100.00
21960;BME280;11144;43.030;25.108;2023-04-30T00:59:20;98887.50;;;11.71;100.00
21960;BME280;11144;43.030;25.108;2023-04-30T01:00:54;98900.56;;;11.74;100.00
21960;BME280;11144;43.030;25.108;2023-04-30T01:02:32;98893.34;;;11.78;100.00
21960;BME280;11144;43.030;25.108;2023-04-30T01:04:06;98897.50;;;11.83;100.00
21960;BME280;11144;43.030;25.108;2023-04-30T01:05:39;98897.19;;;11.89;100.00
21960;BME280;11144;43.030;25.108;2023-04-30T01:07:12;98890.03;;;11.91;100.00
21960;BME280;11144;43.030;25.108;2023-04-30T01:08:46;98899.41;;;11.98;100.00
21960;BME280;11144;43.030;25.108;2023-04-30T01:10:20;98889.56;;;12.00;100.00
21960;BME280;11144;43.030;25.108;2023-04-30T01:12:01;98894.72;;;12.03;100.00
21960;BME280;11144;43.030;25.108;2023-04-30T01:13:40;98890.50;;;11.99;100.00
21960;BME280;11144;43.030;25.108;2023-04-30T01:15:22;98888.59;;;12.03;100.00
21960;BME280;11144;43.030;25.108;2023-04-30T01:17:04;98890.22;;;12.05;100.00
21960;BME280;11144;43.030;25.108;2023-04-30T01:18:44;98888.47;;;12.04;100.00
21960;BME280;11144;43.030;25.108;2023-04-30T01:20:22;98889.56;;;12.00;100.00
21960;BME280;11144;43.030;25.108;2023-04-30T01:21:57;98894.09;;;11.98;100.00
21960;BME280;11144;43.030;25.108;2023-04-30T01:23:46;98887.88;;;11.99;100.00
21960;BME280;11144;43.030;25.108;2023-04-30T01:25:41;98878.34;;;11.95;100.00
21960;BME280;11144;43.030;25.108;2023-04-30T01:27:27;98885.00;;;11.85;100.00
21960;BME280;11144;43.030;25.108;2023-04-30T01:29:05;98887.97;;;11.79;100.00
21960;BME280;11144;43.030;25.108;2023-04-30T01:30:41;98881.88;;;11.77;100.00
21960;BME280;11144;43.030;25.108;2023-04-30T01:32:15;98892.47;;;11.77;100.00
21960;BME280;11144;43.030;25.108;2023-04-30T01:33:48;98885.31;;;11.79;100.00
21960;BME280;11144;43.030;25.108;2023-04-30T01:35:28;98889.06;;;11.75;100.00
21960;BME280;11144;43.030;25.108;2023-04-30T01:37:12;98891.03;;;11.70;100.00
21960;BME280;11144;43.030;25.108;2023-04-30T01:39:08;98895.72;;;11.65;100.00
21960;BME280;11144;43.030;25.108;2023-04-30T01:40:50;98885.88;;;11.67;100.00
21960;BME280;11144;43.030;25.108;2023-04-30T01:42:31;98887.56;;;11.70;100.00
21960;BME280;11144;43.030;25.108;2023-04-30T01:44:20;98894.91;;;11.63;100.00
21960;BME280;11144;43.030;25.108;2023-04-30T01:46:02;98884.59;;;11.57;100.00
21960;BME280;11144;43.030;25.108;2023-04-30T01:47:39;98893.63;;;11.53;100.00
21960;BME280;11144;43.030;25.108;2023-04-30T01:49:20;98888.38;;;11.52;100.00
21960;BME280;11144;43.030;25.108;2023-04-30T01:51:07;98891.88;;;11.52;100.00
21960;BME280;11144;43.030;25.108;2023-04-30T01:52:46;98881.28;;;11.52;100.00
21960;BME280;11144;43.030;25.108;2023-04-30T01:54:26;98881.28;;;11.52;100.00
21960;BME280;11144;43.030;25.108;2023-04-30T01:56:05;98897.16;;;11.52;100.00
21960;BME280;11144;43.030;25.108;2023-04-30T01:57:42;98893.63;;;11.53;100.00
21960;BME280;11144;43.030;25.108;2023-04-30T01:59:18;98896.19;;;11.55;100.00
21960;BME280;11144;43.030;25.108;2023-04-30T02:00:51;98888.16;;;11.56;100.00
21960;BME280;11144;43.030;25.108;2023-04-30T02:02:24;98895.19;;;11.57;100.00
21960;BME280;11144;43.030;25.108;2023-04-30T02:03:57;98887.97;;;11.61;100.00
21960;BME280;11144;43.030;25.108;2023-04-30T02:05:31;98883.59;;;11.60;100.00
21960;BME280;11144;43.030;25.108;2023-04-30T02:07:04;98891.50;;;11.61;100.00
21960;BME280;11144;43.030;25.108;2023-04-30T02:08:38;98887.91;;;11.62;100.00
21960;BME280;11144;43.030;25.108;2023-04-30T02:10:11;98889.47;;;11.66;100.00
21960;BME280;11144;43.030;25.108;2023-04-30T02:11:44;98892.91;;;11.68;100.00
21960;BME280;11144;43.030;25.108;2023-04-30T02:13:17;98880.59;;;11.67;100.00
21960;BME280;11144;43.030;25.108;2023-04-30T02:14:51;98880.16;;;11.76;100.00
21960;BME280;11144;43.030;25.108;2023-04-30T02:16:24;98888.97;;;11.77;100.00
21960;BME280;11144;43.030;25.108;2023-04-30T02:17:57;98881.81;;;11.79;100.00
21960;BME280;11144;43.030;25.108;2023-04-30T02:19:31;98884.38;;;11.80;100.00
21960;BME280;11144;43.030;25.108;2023-04-30T02:21:04;98893.09;;;11.82;100.00
21960;BME280;11144;43.030;25.108;2023-04-30T02:22:37;98886.97;;;11.82;100.00
21960;BME280;11144;43.030;25.108;2023-04-30T02:24:11;98889.69;;;11.80;100.00
21960;BME280;11144;43.030;25.108;2023-04-30T02:25:44;98891.47;;;11.80;100.00
21960;BME280;11144;43.030;25.108;2023-04-30T02:27:18;98877.44;;;11.78;100.00
21960;BME280;11144;43.030;25.108;2023-04-30T02:28:51;98880.16;;;11.76;100.00
21960;BME280;11144;43.030;25.108;2023-04-30T02:30:26;98875.63;;;11.78;100.00
21960;BME280;11144;43.030;25.108;2023-04-30T02:32:00;98875.56;;;11.80;100.00
21960;BME280;11144;43.030;25.108;2023-04-30T02:33:32;98866.13;;;11.74;100.00
21960;BME280;11144;43.030;25.108;2023-04-30T02:35:06;98873.25;;;11.74;100.00
21960;BME280;11144;43.030;25.108;2023-04-30T02:36:40;98874.44;;;11.67;100.00
21960;BME280;11144;43.030;25.108;2023-04-30T02:38:13;98879.63;;;11.70;100.00
21960;BME280;11144;43.030;25.108;2023-04-30T02:39:46;98880.44;;;11.70;100.00
21960;BME280;11144;43.030;25.108;2023-04-30T02:41:20;98873.31;;;11.72;100.00
21960;BME280;11144;43.030;25.108;2023-04-30T02:42:53;98871.41;;;11.74;100.00
21960;BME280;11144;43.030;25.108;2023-04-30T02:44:27;98875.56;;;11.80;100.00
21960;BME280;11144;43.030;25.108;2023-04-30T02:46:02;98883.44;;;11.81;100.00
21960;BME280;11144;43.030;25.108;2023-04-30T02:47:35;98878.94;;;11.83;100.00
21960;BME280;11144;43.030;25.108;2023-04-30T02:49:08;98881.66;;;11.82;100.00
21960;BME280;11144;43.030;25.108;2023-04-30T02:50:41;98878.94;;;11.83;100.00
21960;BME280;11144;43.030;25.108;2023-04-30T02:52:14;98874.41;;;11.85;100.00
21960;BME280;11144;43.030;25.108;2023-04-30T02:53:46;98878.56;;;11.91;100.00
21960;BME280;11144;43.030;25.108;2023-04-30T02:55:19;98879.28;;;11.94;100.00
21960;BME280;11144;43.030;25.108;2023-04-30T02:56:52;98886.44;;;11.92;100.00
21960;BME280;11144;43.030;25.108;2023-04-30T02:58:26;98883.03;;;11.90;100.00
21960;BME280;11144;43.030;25.108;2023-04-30T02:59:59;98887.44;;;11.90;100.00
21960;BME280;11144;43.030;25.108;2023-04-30T03:01:34;98892.75;;;11.90;100.00
21960;BME280;11144;43.030;25.108;2023-04-30T03:03:08;98891.88;;;11.89;100.00
21960;BME280;11144;43.030;25.108;2023-04-30T03:04:42;98886.91;;;11.83;100.00
21960;BME280;11144;43.030;25.108;2023-04-30T03:06:15;98888.75;;;11.81;100.00
21960;BME280;11144;43.030;25.108;2023-04-30T03:07:48;98895.13;;;11.77;100.00
21960;BME280;11144;43.030;25.108;2023-04-30T03:09:22;98903.22;;;11.74;100.00
21960;BME280;11144;43.030;25.108;2023-04-30T03:10:55;98891.84;;;11.72;100.00
21960;BME280;11144;43.030;25.108;2023-04-30T03:12:28;98891.03;;;11.70;100.00
21960;BME280;11144;43.030;25.108;2023-04-30T03:14:02;98898.34;;;11.65;100.00
21960;BME280;11144;43.030;25.108;2023-04-30T03:15:36;98901.94;;;11.64;100.00
21960;BME280;11144;43.030;25.108;2023-04-30T03:17:10;98900.34;;;11.60;100.00
21960;BME280;11144;43.030;25.108;2023-04-30T03:18:44;98907.47;;;11.58;100.00
21960;BME280;11144;43.030;25.108;2023-04-30T03:20:17;98902.19;;;11.58;100.00
21960;BME280;11144;43.030;25.108;2023-04-30T03:21:50;98898.91;;;11.53;100.00
21960;BME280;11144;43.030;25.108;2023-04-30T03:23:26;98904.13;;;11.55;100.00
21960;BME280;11144;43.030;25.108;2023-04-30T03:24:59;98901.56;;;11.53;100.00
21960;BME280;11144;43.030;25.108;2023-04-30T03:26:33;98904.59;;;11.44;100.00
21960;BME280;11144;43.030;25.108;2023-04-30T03:28:06;98885.44;;;11.39;100.00
21960;BME280;11144;43.030;25.108;2023-04-30T03:29:39;98904.91;;;11.38;100.00
21960;BME280;11144;43.030;25.108;2023-04-30T03:31:12;98895.16;;;11.39;100.00
21960;BME280;11144;43.030;25.108;2023-04-30T03:32:48;98907.19;;;11.46;100.00
21960;BME280;11144;43.030;25.108;2023-04-30T03:34:21;98904.34;;;11.50;100.00
21960;BME280;11144;43.030;25.108;2023-04-30T03:35:54;98907.63;;;11.55;100.00
21960;BME280;11144;43.030;25.108;2023-04-30T03:37:27;98916.50;;;11.54;100.00
21960;BME280;11144;43.030;25.108;2023-04-30T03:39:01;98911.00;;;11.59;100.00
21960;BME280;11144;43.030;25.108;2023-04-30T03:40:34;98917.97;;;11.61;100.00
21960;BME280;11144;43.030;25.108;2023-04-30T03:42:07;98915.13;;;11.66;100.00
21960;BME280;11144;43.030;25.108;2023-04-30T03:43:41;98919.41;;;11.68;100.00
21960;BME280;11144;43.030;25.108;2023-04-30T03:45:14;98926.28;;;11.72;100.00
21960;BME280;11144;43.030;25.108;2023-04-30T03:46:47;98929.69;;;11.74;100.00
21960;BME280;11144;43.030;25.108;2023-04-30T03:48:21;98924.25;;;11.77;100.00
21960;BME280;11144;43.030;25.108;2023-04-30T03:49:54;98920.66;;;11.78;100.00
21960;BME280;11144;43.030;25.108;2023-04-30T03:51:28;98920.53;;;11.81;100.00
21960;BME280;11144;43.030;25.108;2023-04-30T03:53:01;98922.25;;;11.82;100.00
21960;BME280;11144;43.030;25.108;2023-04-30T03:54:34;98921.97;;;11.88;100.00
21960;BME280;11144;43.030;25.108;2023-04-30T03:56:09;98920.88;;;11.92;100.00
21960;BME280;11144;43.030;25.108;2023-04-30T03:57:42;98916.38;;;11.94;100.00
21960;BME280;11144;43.030;25.108;2023-04-30T03:59:16;98919.81;;;11.96;100.00
21960;BME280;11144;43.030;25.108;2023-04-30T04:00:49;98916.94;;;12.01;100.00
21960;BME280;11144;43.030;25.108;2023-04-30T04:02:23;98926.25;;;12.09;100.00
21960;BME280;11144;43.030;25.108;2023-04-30T04:03:58;98929.38;;;12.17;100.00
21960;BME280;11144;43.030;25.108;2023-04-30T04:05:36;98927.19;;;12.25;100.00
21960;BME280;11144;43.030;25.108;2023-04-30T04:07:09;98936.22;;;12.40;100.00
21960;BME280;11144;43.030;25.108;2023-04-30T04:08:43;98931.47;;;12.46;100.00
21960;BME280;11144;43.030;25.108;2023-04-30T04:10:16;98932.72;;;12.56;100.00
21960;BME280;11144;43.030;25.108;2023-04-30T04:11:48;98926.94;;;12.65;100.00
21960;BME280;11144;43.030;25.108;2023-04-30T04:13:22;98936.84;;;12.79;100.00
21960;BME280;11144;43.030;25.108;2023-04-30T04:14:55;98931.84;;;12.90;100.00
21960;BME280;11144;43.030;25.108;2023-04-30T04:16:29;98936.66;;;13.00;100.00
21960;BME280;11144;43.030;25.108;2023-04-30T04:18:02;98936.97;;;13.11;100.00
21960;BME280;11144;43.030;25.108;2023-04-30T04:19:39;98932.25;;;13.16;100.00
21960;BME280;11144;43.030;25.108;2023-04-30T04:21:12;98936.16;;;13.26;100.00
21960;BME280;11144;43.030;25.108;2023-04-30T04:22:45;98940.97;;;13.35;100.00
21960;BME280;11144;43.030;25.108;2023-04-30T04:24:19;98937.66;;;13.47;100.00
21960;BME280;11144;43.030;25.108;2023-04-30T04:25:52;98938.28;;;13.52;100.00
21960;BME280;11144;43.030;25.108;2023-04-30T04:27:25;98931.50;;;13.62;100.00
21960;BME280;11144;43.030;25.108;2023-04-30T04:28:58;98945.34;;;13.69;100.00
21960;BME280;11144;43.030;25.108;2023-04-30T04:30:32;98946.81;;;13.75;100.00
21960;BME280;11144;43.030;25.108;2023-04-30T04:32:07;98949.25;;;13.77;100.00
21960;BME280;11144;43.030;25.108;2023-04-30T04:33:43;98945.69;;;13.79;100.00
21960;BME280;11144;43.030;25.108;2023-04-30T04:35:18;98954.25;;;13.84;100.00
21960;BME280;11144;43.030;25.108;2023-04-30T04:36:52;98943.69;;;13.82;100.00
21960;BME280;11144;43.030;25.108;2023-04-30T04:38:25;98954.41;;;13.81;100.00
21960;BME280;11144;43.030;25.108;2023-04-30T04:39:58;98951.00;;;13.79;100.00
21960;BME280;11144;43.030;25.108;2023-04-30T04:41:33;98945.59;;;13.80;100.00
21960;BME280;11144;43.030;25.108;2023-04-30T04:43:07;98941.91;;;13.83;100.00
21960;BME280;11144;43.030;25.108;2023-04-30T04:44:40;98950.66;;;13.85;100.00
21960;BME280;11144;43.030;25.108;2023-04-30T04:46:14;98961.13;;;13.88;100.00
21960;BME280;11144;43.030;25.108;2023-04-30T04:47:48;98955.63;;;13.91;100.00
21960;BME280;11144;43.030;25.108;2023-04-30T04:49:23;98957.00;;;13.98;100.00
21960;BME280;11144;43.030;25.108;2023-04-30T04:50:57;98945.69;;;14.10;100.00
21960;BME280;11144;43.030;25.108;2023-04-30T04:52:31;98951.03;;;14.41;100.00
21960;BME280;11144;43.030;25.108;2023-04-30T04:54:04;98950.41;;;14.81;100.00
21960;BME280;11144;43.030;25.108;2023-04-30T04:55:37;98958.13;;;15.29;100.00
21960;BME280;11144;43.030;25.108;2023-04-30T04:57:11;98957.06;;;15.75;100.00
21960;BME280;11144;43.030;25.108;2023-04-30T04:58:44;98952.25;;;16.22;100.00
21960;BME280;11144;43.030;25.108;2023-04-30T05:00:18;98958.56;;;16.74;100.00
21960;BME280;11144;43.030;25.108;2023-04-30T05:01:53;98957.38;;;17.17;100.00
21960;BME280;11144;43.030;25.108;2023-04-30T05:03:25;98959.03;;;17.57;100.00
21960;BME280;11144;43.030;25.108;2023-04-30T05:04:58;98959.22;;;18.04;100.00
21960;BME280;11144;43.030;25.108;2023-04-30T05:06:34;98948.88;;;18.36;100.00
21960;BME280;11144;43.030;25.108;2023-04-30T05:08:07;98952.44;;;18.83;100.00
21960;BME280;11144;43.030;25.108;2023-04-30T05:09:40;98952.53;;;19.16;100.00
21960;BME280;11144;43.030;25.108;2023-04-30T05:11:14;98948.13;;;19.39;100.00
21960;BME280;11144;43.030;25.108;2023-04-30T05:12:48;98948.16;;;19.50;100.00
21960;BME280;11144;43.030;25.108;2023-04-30T05:14:21;98949.03;;;19.61;100.00
21960;BME280;11144;43.030;25.108;2023-04-30T05:15:54;98953.66;;;19.70;100.00
21960;BME280;11144;43.030;25.108;2023-04-30T05:17:28;98953.19;;;19.87;100.00
21960;BME280;11144;43.030;25.108;2023-04-30T05:19:01;98954.28;;;19.96;100.00
21960;BME280;11144;43.030;25.108;2023-04-30T05:20:34;98947.06;;;20.30;100.00
21960;BME280;11144;43.030;25.108;2023-04-30T05:22:09;98948.47;;;20.56;100.00
21960;BME280;11144;43.030;25.108;2023-04-30T05:23:43;98949.78;;;20.72;100.00
21960;BME280;11144;43.030;25.108;2023-04-30T05:25:16;98943.53;;;20.94;100.00
21960;BME280;11144;43.030;25.108;2023-04-30T05:26:50;98945.16;;;20.74;100.00
21960;BME280;11144;43.030;25.108;2023-04-30T05:28:23;98944.94;;;20.66;100.00
21960;BME280;11144;43.030;25.108;2023-04-30T05:29:56;98947.13;;;20.61;100.00
21960;BME280;11144;43.030;25.108;2023-04-30T05:31:29;98949.94;;;20.60;100.00
21960;BME280;11144;43.030;25.108;2023-04-30T05:33:03;98948.06;;;20.71;100.00
21960;BME280;11144;43.030;25.108;2023-04-30T05:34:36;98953.88;;;20.87;100.00
21960;BME280;11144;43.030;25.108;2023-04-30T05:36:10;98951.31;;;20.86;100.00
21960;BME280;11144;43.030;25.108;2023-04-30T05:37:45;98945.28;;;21.04;100.00
21960;BME280;11144;43.030;25.108;2023-04-30T05:39:18;98945.75;;;21.30;100.00
21960;BME280;11144;43.030;25.108;2023-04-30T05:40:51;98949.03;;;21.54;100.00
21960;BME280;11144;43.030;25.108;2023-04-30T05:42:24;98945.72;;;21.71;100.00
21960;BME280;11144;43.030;25.108;2023-04-30T05:43:58;98946.53;;;21.62;100.00
21960;BME280;11144;43.030;25.108;2023-04-30T05:45:33;98950.63;;;21.77;100.00
21960;BME280;11144;43.030;25.108;2023-04-30T05:47:06;98956.00;;;21.77;100.00
21960;BME280;11144;43.030;25.108;2023-04-30T05:48:40;98946.19;;;21.96;100.00
21960;BME280;11144;43.030;25.108;2023-04-30T05:50:13;98946.81;;;22.19;100.00
21960;BME280;11144;43.030;25.108;2023-04-30T05:51:47;98945.19;;;22.37;100.00
21960;BME280;11144;43.030;25.108;2023-04-30T05:53:21;98944.63;;;22.43;100.00
21960;BME280;11144;43.030;25.108;2023-04-30T05:54:55;98932.50;;;22.58;100.00
21960;BME280;11144;43.030;25.108;2023-04-30T05:56:28;98935.75;;;22.52;100.00
21960;BME280;11144;43.030;25.108;2023-04-30T05:58:01;98942.41;;;22.48;100.00
21960;BME280;11144;43.030;25.108;2023-04-30T05:59:33;98944.13;;;22.49;100.00
21960;BME280;11144;43.030;25.108;2023-04-30T06:01:06;98942.41;;;22.48;100.00
21960;BME280;11144;43.030;25.108;2023-04-30T06:02:42;98945.31;;;22.75;100.00
21960;BME280;11144;43.030;25.108;2023-04-30T06:04:15;98948.00;;;22.94;100.00
21960;BME280;11144;43.030;25.108;2023-04-30T06:05:48;98942.91;;;22.91;100.00
21960;BME280;11144;43.030;25.108;2023-04-30T06:07:21;98936.50;;;22.73;100.00
21960;BME280;11144;43.030;25.108;2023-04-30T06:08:56;98944.72;;;22.81;100.00
21960;BME280;11144;43.030;25.108;2023-04-30T06:10:29;98939.94;;;22.94;100.00
21960;BME280;11144;43.030;25.108;2023-04-30T06:12:03;98959.22;;;23.08;100.00
21960;BME280;11144;43.030;25.108;2023-04-30T06:13:35;98948.75;;;23.15;100.00
21960;BME280;11144;43.030;25.108;2023-04-30T06:15:09;98951.84;;;23.20;100.00
21960;BME280;11144;43.030;25.108;2023-04-30T06:16:42;98948.16;;;23.40;100.00
21960;BME280;11144;43.030;25.108;2023-04-30T06:18:16;98953.88;;;23.37;100.00
21960;BME280;11144;43.030;25.108;2023-04-30T06:19:49;98958.91;;;23.59;100.00
21960;BME280;11144;43.030;25.108;2023-04-30T06:21:24;98954.03;;;23.82;100.00
21960;BME280;11144;43.030;25.108;2023-04-30T06:22:57;98955.88;;;24.00;100.00
21960;BME280;11144;43.030;25.108;2023-04-30T06:24:34;98963.50;;;24.05;100.00
21960;BME280;11144;43.030;25.108;2023-04-30T06:26:08;98955.88;;;24.00;100.00
21960;BME280;11144;43.030;25.108;2023-04-30T06:27:41;98953.41;;;23.51;100.00
21960;BME280;11144;43.030;25.108;2023-04-30T06:29:14;98954.38;;;23.60;100.00
21960;BME280;11144;43.030;25.108;2023-04-30T06:30:48;98948.81;;;23.71;100.00
21960;BME280;11144;43.030;25.108;2023-04-30T06:32:21;98950.09;;;23.67;100.00
21960;BME280;11144;43.030;25.108;2023-04-30T06:33:54;98942.16;;;23.65;100.00
21960;BME280;11144;43.030;25.108;2023-04-30T06:35:28;98948.66;;;23.72;100.00
21960;BME280;11144;43.030;25.108;2023-04-30T06:37:01;98946.34;;;23.87;100.00
21960;BME280;11144;43.030;25.108;2023-04-30T06:38:34;98938.75;;;24.09;100.00
21960;BME280;11144;43.030;25.108;2023-04-30T06:40:09;98933.16;;;24.20;100.00
21960;BME280;11144;43.030;25.108;2023-04-30T06:41:43;98944.78;;;24.30;100.00
21960;BME280;11144;43.030;25.108;2023-04-30T06:43:18;98942.16;;;24.38;100.00
21960;BME280;11144;43.030;25.108;2023-04-30T06:44:51;98940.81;;;24.25;100.00
21960;BME280;11144;43.030;25.108;2023-04-30T06:46:26;98944.66;;;24.49;100.00
21960;BME280;11144;43.030;25.108;2023-04-30T06:47:59;98925.53;;;24.60;100.00
21960;BME280;11144;43.030;25.108;2023-04-30T06:49:32;98930.84;;;24.79;100.00
21960;BME280;11144;43.030;25.108;2023-04-30T06:51:05;98932.22;;;24.83;100.00
21960;BME280;11144;43.030;25.108;2023-04-30T06:52:41;98935.78;;;25.01;100.00
21960;BME280;11144;43.030;25.108;2023-04-30T06:54:15;98933.09;;;24.84;100.00
21960;BME280;11144;43.030;25.108;2023-04-30T06:55:50;98932.38;;;24.99;100.00
21960;BME280;11144;43.030;25.108;2023-04-30T06:57:23;98935.63;;;25.20;100.00
21960;BME280;11144;43.030;25.108;2023-04-30T06:58:56;98931.44;;;25.43;100.00
21960;BME280;11144;43.030;25.108;2023-04-30T07:00:30;98927.34;;;25.39;100.00
21960;BME280;11144;43.030;25.108;2023-04-30T07:02:03;98930.91;;;25.22;100.00
21960;BME280;11144;43.030;25.108;2023-04-30T07:03:36;98934.41;;;24.97;100.00
21960;BME280;11144;43.030;25.108;2023-04-30T07:05:10;98934.41;;;24.97;100.00
21960;BME280;11144;43.030;25.108;2023-04-30T07:06:43;98940.25;;;25.10;100.00
21960;BME280;11144;43.030;25.108;2023-04-30T07:08:17;98929.13;;;25.13;100.00
21960;BME280;11144;43.030;25.108;2023-04-30T07:09:50;98939.56;;;25.43;100.00
21960;BME280;11144;43.030;25.108;2023-04-30T07:11:26;98939.31;;;25.54;100.00
21960;BME280;11144;43.030;25.108;2023-04-30T07:12:59;98935.31;;;25.58;100.00
21960;BME280;11144;43.030;25.108;2023-04-30T07:14:32;98936.47;;;25.38;100.00
21960;BME280;11144;43.030;25.108;2023-04-30T07:16:06;98933.47;;;25.41;100.00
21960;BME280;11144;43.030;25.108;2023-04-30T07:17:41;98934.34;;;25.67;100.00
21960;BME280;11144;43.030;25.108;2023-04-30T07:19:14;98942.16;;;25.70;100.00
21960;BME280;11144;43.030;25.108;2023-04-30T07:20:47;98937.44;;;25.80;100.00
21960;BME280;11144;43.030;25.108;2023-04-30T07:22:20;98937.09;;;25.75;100.00
21960;BME280;11144;43.030;25.108;2023-04-30T07:23:54;98934.06;;;25.78;99.48
21960;BME280;11144;43.030;25.108;2023-04-30T07:25:27;98935.63;;;25.55;99.62
21960;BME280;11144;43.030;25.108;2023-04-30T07:27:01;98941.44;;;25.68;98.05
21960;BME280;11144;43.030;25.108;2023-04-30T07:28:35;98933.91;;;25.80;97.90
21960;BME280;11144;43.030;25.108;2023-04-30T07:30:08;98940.31;;;25.97;95.08
21960;BME280;11144;43.030;25.108;2023-04-30T07:31:42;98926.69;;;25.88;93.59
21960;BME280;11144;43.030;25.108;2023-04-30T07:33:15;98928.69;;;25.86;90.45
21960;BME280;11144;43.030;25.108;2023-04-30T07:34:48;98936.78;;;25.78;89.08
21960;BME280;11144;43.030;25.108;2023-04-30T07:36:23;98930.88;;;25.57;87.90
21960;BME280;11144;43.030;25.108;2023-04-30T07:37:58;98937.72;;;25.69;87.64
21960;BME280;11144;43.030;25.108;2023-04-30T07:39:31;98928.16;;;25.57;85.01
21960;BME280;11144;43.030;25.108;2023-04-30T07:41:04;98925.50;;;25.40;85.80
21960;BME280;11144;43.030;25.108;2023-04-30T07:42:40;98927.75;;;25.44;84.63
21960;BME280;11144;43.030;25.108;2023-04-30T07:44:13;98928.19;;;25.22;84.27
21960;BME280;11144;43.030;25.108;2023-04-30T07:45:47;98927.44;;;25.12;80.69
21960;BME280;11144;43.030;25.108;2023-04-30T07:47:22;98927.09;;;24.80;81.68
21960;BME280;11144;43.030;25.108;2023-04-30T07:48:57;98929.75;;;24.72;79.62
21960;BME280;11144;43.030;25.108;2023-04-30T07:50:30;98922.09;;;24.58;80.08
21960;BME280;11144;43.030;25.108;2023-04-30T07:52:05;98927.25;;;24.07;77.06
21960;BME280;11144;43.030;25.108;2023-04-30T07:53:41;98927.34;;;23.69;78.63
21960;BME280;11144;43.030;25.108;2023-04-30T07:55:15;98930.50;;;23.55;79.28
21960;BME280;11144;43.030;25.108;2023-04-30T07:56:48;98927.16;;;23.34;79.17
21960;BME280;11144;43.030;25.108;2023-04-30T07:58:23;98933.97;;;23.29;80.86
21960;BME280;11144;43.030;25.108;2023-04-30T07:59:56;98924.63;;;23.23;81.43
21960;BME280;11144;43.030;25.108;2023-04-30T08:01:30;98937.09;;;23.05;81.31
21960;BME280;11144;43.030;25.108;2023-04-30T08:03:03;98930.56;;;22.98;80.96
21960;BME280;11144;43.030;25.108;2023-04-30T08:04:36;98927.44;;;23.02;80.44
21960;BME280;11144;43.030;25.108;2023-04-30T08:06:10;98926.16;;;22.97;80.04